EDT,Max TemperatureF,Mean TemperatureF,Min TemperatureF,Max Dew PointF,MeanDew PointF,Min DewpointF,Max Humidity, Mean Humidity, Min Humidity, Max Sea Level PressureIn, Mean Sea Level PressureIn, Min Sea Level PressureIn, Max VisibilityMiles, Mean VisibilityMiles, Min VisibilityMiles, Max Wind SpeedMPH, Mean Wind SpeedMPH, Max Gust SpeedMPH,PrecipitationIn, CloudCover, Events, WindDirDegrees
2012-10-1,64,55,46,52,46,41,100,73,38,29.98,29.92,29.86,15,15,10,8,3,,0.01,5,,33
2012-10-2,68,61,54,59,55,50,95,83,65,29.92,29.87,29.83,15,13,3,15,7,17,0.12,7,Rain,46
2012-10-3,67,64,60,61,58,55,100,85,57,30.10,30.00,29.89,15,8,0,17,6,23,0.02,8,Fog-Rain,235
2012-10-4,75,66,57,57,54,51,88,68,35,30.10,30.07,30.01,15,15,15,20,10,22,0.00,3,,211
2012-10-5,66,56,46,58,49,41,100,71,51,30.07,30.03,29.99,15,14,7,14,10,21,0.16,8,Rain,260
2012-10-6,51,46,40,45,38,32,100,74,40,30.12,30.03,29.96,15,14,10,17,10,22,0.00,6,Rain,263
2012-10-7,50,45,40,41,37,32,87,72,44,30.15,30.12,30.10,15,15,15,9,6,,0.01,7,Rain,288
2012-10-8,53,44,35,39,34,28,94,67,31,30.24,30.19,30.14,15,15,15,14,7,17,0.00,2,,219
2012-10-9,61,50,39,57,39,32,94,66,42,30.15,30.05,29.89,15,15,12,20,8,25,0.00,4,,197
2012-10-10,52,47,41,45,37,26,93,68,36,30.17,29.95,29.80,15,14,6,28,15,34,0.08,6,Rain,269
2012-10-11,61,48,35,41,32,30,81,56,25,30.22,30.14,30.04,15,15,15,25,10,34,0.04,2,,234
2012-10-12,50,44,37,39,33,28,81,63,29,30.45,30.36,30.17,15,15,15,14,10,20,0.00,4,Rain,4
2012-10-13,59,46,32,57,40,27,100,78,55,30.43,30.21,29.93,15,12,2,15,6,20,0.47,6,Rain,158
2012-10-14,68,62,56,63,60,57,100,85,70,29.91,29.72,29.46,15,8,5,24,14,37,0.02,7,Rain,202
2012-10-15,56,52,48,54,44,41,82,73,56,29.93,29.75,29.47,15,15,6,28,21,37,0.00,7,Rain,274
2012-10-16,56,48,41,46,38,34,87,66,43,30.01,29.92,29.79,15,15,15,13,8,20,0.02,5,Rain,236
2012-10-17,71,59,47,55,49,45,88,64,35,29.80,29.71,29.62,15,14,12,20,10,28,0.03,7,Rain,184
2012-10-18,62,58,51,55,46,36,94,65,39,29.70,29.55,29.43,15,14,10,24,12,31,0.08,6,Rain-Thunderstorm,179
2012-10-19,57,52,46,48,44,39,100,76,52,29.69,29.62,29.58,15,14,7,15,7,21,0.12,7,Rain,180
2012-10-20,57,51,45,47,45,43,100,85,59,29.88,29.71,29.60,15,12,6,16,9,23,0.02,7,Rain,248
2012-10-21,61,50,40,46,43,41,100,79,44,30.12,30.06,29.91,15,14,7,10,6,18,0.00,1,Fog,229
2012-10-22,68,55,42,55,49,43,100,81,47,30.12,30.07,29.99,15,14,12,9,4,,0.12,4,Rain,173
2012-10-23,68,63,58,61,58,56,100,86,73,30.02,29.97,29.92,15,14,7,12,7,,0.12,7,Rain,217
2012-10-24,75,67,59,61,59,57,100,81,54,30.04,30.01,29.98,15,14,10,12,5,,0.03,5,Rain,195
2012-10-25,76,66,57,57,54,53,88,67,42,30.02,29.96,29.88,15,15,15,17,9,23,0.00,2,,190
2012-10-26,66,56,46,55,45,36,93,73,56,30.25,30.10,29.87,15,15,12,18,11,24,0.12,7,Rain,330
2012-10-27,53,48,43,39,36,32,76,65,44,30.21,30.18,30.14,15,15,15,16,11,22,0.00,7,,7
2012-10-28,46,43,40,37,33,30,76,64,46,30.19,30.15,30.10,15,15,12,26,14,37,0.04,6,Rain,5
2012-10-29,42,41,39,39,36,33,93,80,62,30.09,29.95,29.70,15,13,7,29,22,40,0.12,8,Rain,355
2012-10-30,45,40,36,43,39,36,100,92,87,29.65,29.46,29.39,15,11,5,33,25,44,0.24,8,Rain,347
2012-10-31,43,40,38,40,37,35,93,88,79,29.65,29.56,29.46,15,13,6,20,17,29,0.04,8,Rain,309